Airfield :
LOGIN :

Register | Disclaimer

   EN    FR    IT 

 










Legend :    VFR   Marginal VFR   IFR   Intensive IFR   Very Intensive IFR
Visi :
Ceiling :
>= 8 km
>= 3000ft
5 to 8 km
1000 to 3000 ft
1500m to 5 km
500 to 1000 ft
800 to 1500m
200 to 500 ft
< 800m
< 200 ft
Symbols :   Thunderstorms  Fog  Heavy snow  Heavy precipitations  Wind > 20 kt
SIGMETs :     Misc.  Thunderstorms  Icing  Turbulence  Mountain Waves  Volcanic Ashes






- Airport Elevation : 156 ft
- IATA code : OMO


LQMO - Mostar

CURRENT METAR :
  • 291030Z 17014KT 9999 FEW035 SCT050 24/15 Q1004

EXPIRED METARs :
  • 291000Z 16013KT 9999 FEW035 SCT050 23/14 Q1004
  • 290930Z 15009KT 090V200 9999 FEW015 SCT040TCU BKN085 22/17 Q1004
  • 290900Z 04004KT 020V090 9999 FEW015 SCT040TCU BKN085 21/17 Q1004
  • 290800Z 16008KT 120V200 7000 SHRA FEW015 SCT040TCU BKN085 20/16 Q1004

TAF COR TAF LQMO
Valid from the 29 at 06:00 until the 30 at 06:00 UTC


290500Z 2906/3006 16006KT 9999 FEW035 SCT050 TX24/2913Z TN14/3004Z
PROB40
TEMPO 2906/2919 22012KT 4000 TSRA FEW015 FEW037CB BKN045
PROB40
TEMPO 2922/3003 18016KT 4000 TSRA FEW010 FEW035CB BKN040



MET'MAP, your aeronautical weather chart ! - Copyright ORBIFLY December 2007 - Disclaimer

ORBIFLY MET'MAP TEAM :

Programming & Development : Alexandra Zaïnal
Original concept : Baudouin d'Aumeries
Technical & hardware support : Manuel Goepfert
Assistance : Marc-Olivier Méhu




SOURCES & CREDITS :

   NOAA